sensor_id;sensor_type;location;lat;lon;timestamp;temperature;humidity
75719;DHT22;64340;48.534;-3.036;2023-10-09T00:00:53;18.90;65.90
75719;DHT22;64340;48.534;-3.036;2023-10-09T00:03:26;18.90;65.90
75719;DHT22;64340;48.534;-3.036;2023-10-09T00:05:53;18.90;65.80
75719;DHT22;64340;48.534;-3.036;2023-10-09T00:08:19;18.90;65.80
75719;DHT22;64340;48.534;-3.036;2023-10-09T00:10:47;18.90;65.70
75719;DHT22;64340;48.534;-3.036;2023-10-09T00:13:20;18.90;65.70
75719;DHT22;64340;48.534;-3.036;2023-10-09T00:15:46;18.90;65.70
75719;DHT22;64340;48.534;-3.036;2023-10-09T00:18:18;18.90;65.80
75719;DHT22;64340;48.534;-3.036;2023-10-09T00:20:53;18.90;65.80
75719;DHT22;64340;48.534;-3.036;2023-10-09T00:23:20;18.90;65.80
75719;DHT22;64340;48.534;-3.036;2023-10-09T00:25:49;18.90;65.80
75719;DHT22;64340;48.534;-3.036;2023-10-09T00:28:30;18.80;65.90
75719;DHT22;64340;48.534;-3.036;2023-10-09T00:30:56;18.80;65.90
75719;DHT22;64340;48.534;-3.036;2023-10-09T00:33:21;18.80;65.90
75719;DHT22;64340;48.534;-3.036;2023-10-09T00:35:48;18.80;66.00
75719;DHT22;64340;48.534;-3.036;2023-10-09T00:38:19;18.80;65.90
75719;DHT22;64340;48.534;-3.036;2023-10-09T00:40:45;18.80;65.90
75719;DHT22;64340;48.534;-3.036;2023-10-09T00:43:15;18.80;65.90
75719;DHT22;64340;48.534;-3.036;2023-10-09T00:45:42;18.80;66.00
75719;DHT22;64340;48.534;-3.036;2023-10-09T00:48:09;18.80;66.00
75719;DHT22;64340;48.534;-3.036;2023-10-09T00:50:35;18.80;65.90
75719;DHT22;64340;48.534;-3.036;2023-10-09T00:53:01;18.80;66.00
75719;DHT22;64340;48.534;-3.036;2023-10-09T00:55:31;18.80;66.00
75719;DHT22;64340;48.534;-3.036;2023-10-09T00:58:02;18.80;66.00
75719;DHT22;64340;48.534;-3.036;2023-10-09T01:00:34;18.80;66.00
75719;DHT22;64340;48.534;-3.036;2023-10-09T01:03:09;18.80;66.00
75719;DHT22;64340;48.534;-3.036;2023-10-09T01:05:54;18.80;66.00
75719;DHT22;64340;48.534;-3.036;2023-10-09T01:08:24;18.80;66.00
75719;DHT22;64340;48.534;-3.036;2023-10-09T01:11:00;18.70;66.10
75719;DHT22;64340;48.534;-3.036;2023-10-09T01:13:39;18.70;66.00
75719;DHT22;64340;48.534;-3.036;2023-10-09T01:16:07;18.70;66.00
75719;DHT22;64340;48.534;-3.036;2023-10-09T01:18:38;18.70;65.90
75719;DHT22;64340;48.534;-3.036;2023-10-09T01:21:11;18.70;65.90
75719;DHT22;64340;48.534;-3.036;2023-10-09T01:23:43;18.70;65.90
75719;DHT22;64340;48.534;-3.036;2023-10-09T01:26:25;18.70;65.80
75719;DHT22;64340;48.534;-3.036;2023-10-09T01:28:50;18.70;65.80
75719;DHT22;64340;48.534;-3.036;2023-10-09T01:31:16;18.70;65.80
75719;DHT22;64340;48.534;-3.036;2023-10-09T01:33:42;18.70;65.80
75719;DHT22;64340;48.534;-3.036;2023-10-09T01:36:07;18.70;65.70
75719;DHT22;64340;48.534;-3.036;2023-10-09T01:38:35;18.70;65.60
75719;DHT22;64340;48.534;-3.036;2023-10-09T01:41:11;18.70;65.60
75719;DHT22;64340;48.534;-3.036;2023-10-09T01:43:41;18.70;65.70
75719;DHT22;64340;48.534;-3.036;2023-10-09T01:46:10;18.70;65.70
75719;DHT22;64340;48.534;-3.036;2023-10-09T01:48:36;18.70;65.70
75719;DHT22;64340;48.534;-3.036;2023-10-09T01:51:12;18.70;65.70
75719;DHT22;64340;48.534;-3.036;2023-10-09T01:53:38;18.70;65.70
75719;DHT22;64340;48.534;-3.036;2023-10-09T01:56:10;18.60;65.80
75719;DHT22;64340;48.534;-3.036;2023-10-09T01:58:40;18.60;65.90
75719;DHT22;64340;48.534;-3.036;2023-10-09T02:01:06;18.60;65.90
75719;DHT22;64340;48.534;-3.036;2023-10-09T02:03:31;18.60;65.90
75719;DHT22;64340;48.534;-3.036;2023-10-09T02:06:02;18.60;65.90
75719;DHT22;64340;48.534;-3.036;2023-10-09T02:08:47;18.60;65.90
75719;DHT22;64340;48.534;-3.036;2023-10-09T02:11:15;18.60;66.00
75719;DHT22;64340;48.534;-3.036;2023-10-09T02:13:50;18.60;65.90
75719;DHT22;64340;48.534;-3.036;2023-10-09T02:16:22;18.60;66.00
75719;DHT22;64340;48.534;-3.036;2023-10-09T02:18:54;18.60;66.00
75719;DHT22;64340;48.534;-3.036;2023-10-09T02:21:21;18.60;66.00
75719;DHT22;64340;48.534;-3.036;2023-10-09T02:24:05;18.60;65.90
75719;DHT22;64340;48.534;-3.036;2023-10-09T02:26:33;18.60;65.90
75719;DHT22;64340;48.534;-3.036;2023-10-09T02:28:58;18.60;65.90
75719;DHT22;64340;48.534;-3.036;2023-10-09T02:31:24;18.50;65.90
75719;DHT22;64340;48.534;-3.036;2023-10-09T02:33:53;18.50;66.00
75719;DHT22;64340;48.534;-3.036;2023-10-09T02:36:23;18.50;65.90
75719;DHT22;64340;48.534;-3.036;2023-10-09T02:38:49;18.50;65.90
75719;DHT22;64340;48.534;-3.036;2023-10-09T02:41:18;18.50;65.90
75719;DHT22;64340;48.534;-3.036;2023-10-09T02:43:46;18.50;65.90
75719;DHT22;64340;48.534;-3.036;2023-10-09T02:46:19;18.50;65.80
75719;DHT22;64340;48.534;-3.036;2023-10-09T02:48:55;18.50;65.80
75719;DHT22;64340;48.534;-3.036;2023-10-09T02:51:22;18.50;65.70
75719;DHT22;64340;48.534;-3.036;2023-10-09T02:53:54;18.50;65.80
75719;DHT22;64340;48.534;-3.036;2023-10-09T02:56:21;18.50;65.80
75719;DHT22;64340;48.534;-3.036;2023-10-09T02:58:53;18.50;65.60
75719;DHT22;64340;48.534;-3.036;2023-10-09T03:01:19;18.50;65.50
75719;DHT22;64340;48.534;-3.036;2023-10-09T03:03:45;18.50;65.50
75719;DHT22;64340;48.534;-3.036;2023-10-09T03:06:14;18.50;65.60
75719;DHT22;64340;48.534;-3.036;2023-10-09T03:08:44;18.50;65.60
75719;DHT22;64340;48.534;-3.036;2023-10-09T03:11:13;18.50;65.60
75719;DHT22;64340;48.534;-3.036;2023-10-09T03:13:42;18.50;65.70
75719;DHT22;64340;48.534;-3.036;2023-10-09T03:16:09;18.50;65.70
75719;DHT22;64340;48.534;-3.036;2023-10-09T03:18:51;18.50;65.70
75719;DHT22;64340;48.534;-3.036;2023-10-09T03:21:18;18.50;65.80
75719;DHT22;64340;48.534;-3.036;2023-10-09T03:23:46;18.40;65.80
75719;DHT22;64340;48.534;-3.036;2023-10-09T03:26:16;18.40;65.80
75719;DHT22;64340;48.534;-3.036;2023-10-09T03:28:46;18.40;65.80
75719;DHT22;64340;48.534;-3.036;2023-10-09T03:31:12;18.40;65.80
75719;DHT22;64340;48.534;-3.036;2023-10-09T03:33:38;18.40;65.80
75719;DHT22;64340;48.534;-3.036;2023-10-09T03:36:04;18.40;65.80
75719;DHT22;64340;48.534;-3.036;2023-10-09T03:38:43;18.40;65.80
75719;DHT22;64340;48.534;-3.036;2023-10-09T03:41:09;18.40;65.80
75719;DHT22;64340;48.534;-3.036;2023-10-09T03:43:38;18.40;65.90
75719;DHT22;64340;48.534;-3.036;2023-10-09T03:46:05;18.40;65.90
75719;DHT22;64340;48.534;-3.036;2023-10-09T03:48:38;18.40;65.90
75719;DHT22;64340;48.534;-3.036;2023-10-09T03:51:03;18.40;65.80
75719;DHT22;64340;48.534;-3.036;2023-10-09T03:53:36;18.40;65.90
75719;DHT22;64340;48.534;-3.036;2023-10-09T03:56:04;18.40;65.90
75719;DHT22;64340;48.534;-3.036;2023-10-09T03:58:41;18.40;65.80
75719;DHT22;64340;48.534;-3.036;2023-10-09T04:01:14;18.40;65.90
75719;DHT22;64340;48.534;-3.036;2023-10-09T04:03:57;18.40;65.90
75719;DHT22;64340;48.534;-3.036;2023-10-09T04:06:26;18.30;65.90
75719;DHT22;64340;48.534;-3.036;2023-10-09T04:08:59;18.30;65.70
75719;DHT22;64340;48.534;-3.036;2023-10-09T04:11:25;18.30;65.70
75719;DHT22;64340;48.534;-3.036;2023-10-09T04:13:51;18.30;65.70
75719;DHT22;64340;48.534;-3.036;2023-10-09T04:16:20;18.30;65.70
75719;DHT22;64340;48.534;-3.036;2023-10-09T04:18:55;18.30;65.50
75719;DHT22;64340;48.534;-3.036;2023-10-09T04:21:25;18.30;65.70
75719;DHT22;64340;48.534;-3.036;2023-10-09T04:24:01;18.40;65.60
75719;DHT22;64340;48.534;-3.036;2023-10-09T04:26:42;18.40;65.60
75719;DHT22;64340;48.534;-3.036;2023-10-09T04:29:13;18.40;66.00
75719;DHT22;64340;48.534;-3.036;2023-10-09T04:31:58;18.00;62.70
75719;DHT22;64340;48.534;-3.036;2023-10-09T04:34:26;18.00;65.60
75719;DHT22;64340;48.534;-3.036;2023-10-09T04:37:13;18.10;66.20
75719;DHT22;64340;48.534;-3.036;2023-10-09T04:39:39;18.20;66.00
75719;DHT22;64340;48.534;-3.036;2023-10-09T04:42:12;18.20;66.00
75719;DHT22;64340;48.534;-3.036;2023-10-09T04:44:45;18.20;66.00
75719;DHT22;64340;48.534;-3.036;2023-10-09T04:47:30;18.20;66.00
75719;DHT22;64340;48.534;-3.036;2023-10-09T04:50:02;17.30;63.70
75719;DHT22;64340;48.534;-3.036;2023-10-09T04:52:37;17.50;66.40
75719;DHT22;64340;48.534;-3.036;2023-10-09T04:55:03;17.60;66.30
75719;DHT22;64340;48.534;-3.036;2023-10-09T04:57:41;17.80;66.10
75719;DHT22;64340;48.534;-3.036;2023-10-09T05:02:51;18.00;65.80
75719;DHT22;64340;48.534;-3.036;2023-10-09T05:05:20;18.00;65.90
75719;DHT22;64340;48.534;-3.036;2023-10-09T05:08:01;18.00;65.80
75719;DHT22;64340;48.534;-3.036;2023-10-09T05:10:44;18.00;65.70
75719;DHT22;64340;48.534;-3.036;2023-10-09T05:13:30;18.00;65.80
75719;DHT22;64340;48.534;-3.036;2023-10-09T05:16:05;18.00;65.80
75719;DHT22;64340;48.534;-3.036;2023-10-09T05:18:31;18.00;65.90
75719;DHT22;64340;48.534;-3.036;2023-10-09T05:21:03;18.10;65.40
75719;DHT22;64340;48.534;-3.036;2023-10-09T05:23:51;17.90;65.90
75719;DHT22;64340;48.534;-3.036;2023-10-09T05:26:36;17.90;66.40
75719;DHT22;64340;48.534;-3.036;2023-10-09T05:31:46;18.00;66.50
75719;DHT22;64340;48.534;-3.036;2023-10-09T05:34:22;18.00;66.70
75719;DHT22;64340;48.534;-3.036;2023-10-09T05:36:49;18.00;66.90
75719;DHT22;64340;48.534;-3.036;2023-10-09T05:39:14;18.00;67.00
75719;DHT22;64340;48.534;-3.036;2023-10-09T05:42:03;18.00;67.20
75719;DHT22;64340;48.534;-3.036;2023-10-09T05:44:35;18.00;67.20
75719;DHT22;64340;48.534;-3.036;2023-10-09T05:47:19;18.00;67.30
75719;DHT22;64340;48.534;-3.036;2023-10-09T05:49:57;18.00;67.30
75719;DHT22;64340;48.534;-3.036;2023-10-09T05:52:43;18.00;67.30
75719;DHT22;64340;48.534;-3.036;2023-10-09T05:55:17;17.90;67.30
75719;DHT22;64340;48.534;-3.036;2023-10-09T05:57:51;17.90;67.30
75719;DHT22;64340;48.534;-3.036;2023-10-09T06:00:36;17.90;67.30
75719;DHT22;64340;48.534;-3.036;2023-10-09T06:03:20;17.90;67.20
75719;DHT22;64340;48.534;-3.036;2023-10-09T06:05:46;17.80;67.10
75719;DHT22;64340;48.534;-3.036;2023-10-09T06:08:21;17.80;67.20
75719;DHT22;64340;48.534;-3.036;2023-10-09T06:11:13;17.80;67.10
75719;DHT22;64340;48.534;-3.036;2023-10-09T06:13:58;17.80;67.10
75719;DHT22;64340;48.534;-3.036;2023-10-09T06:16:32;17.80;67.00
75719;DHT22;64340;48.534;-3.036;2023-10-09T06:19:10;17.80;66.90
75719;DHT22;64340;48.534;-3.036;2023-10-09T06:21:38;17.80;66.80
75719;DHT22;64340;48.534;-3.036;2023-10-09T06:24:06;17.80;66.80
75719;DHT22;64340;48.534;-3.036;2023-10-09T06:26:40;17.80;66.70
75719;DHT22;64340;48.534;-3.036;2023-10-09T06:29:16;17.70;66.70
75719;DHT22;64340;48.534;-3.036;2023-10-09T06:31:59;17.80;66.60
75719;DHT22;64340;48.534;-3.036;2023-10-09T06:34:30;17.70;66.60
75719;DHT22;64340;48.534;-3.036;2023-10-09T06:37:00;17.70;66.50
75719;DHT22;64340;48.534;-3.036;2023-10-09T06:39:34;17.70;66.50
75719;DHT22;64340;48.534;-3.036;2023-10-09T06:42:18;17.70;66.50
75719;DHT22;64340;48.534;-3.036;2023-10-09T06:47:48;17.60;66.40
75719;DHT22;64340;48.534;-3.036;2023-10-09T06:50:34;17.60;66.40
75719;DHT22;64340;48.534;-3.036;2023-10-09T06:53:18;17.60;66.30
75719;DHT22;64340;48.534;-3.036;2023-10-09T06:55:44;17.60;66.40
75719;DHT22;64340;48.534;-3.036;2023-10-09T06:58:20;17.60;66.20
75719;DHT22;64340;48.534;-3.036;2023-10-09T07:00:51;17.60;66.20
75719;DHT22;64340;48.534;-3.036;2023-10-09T07:03:39;17.60;66.20
75719;DHT22;64340;48.534;-3.036;2023-10-09T07:06:35;17.60;66.20
75719;DHT22;64340;48.534;-3.036;2023-10-09T07:09:01;17.60;66.00
75719;DHT22;64340;48.534;-3.036;2023-10-09T07:11:37;17.60;66.00
75719;DHT22;64340;48.534;-3.036;2023-10-09T07:16:58;17.60;66.00
75719;DHT22;64340;48.534;-3.036;2023-10-09T07:19:25;17.60;66.00
75719;DHT22;64340;48.534;-3.036;2023-10-09T07:22:00;17.60;66.00
75719;DHT22;64340;48.534;-3.036;2023-10-09T07:24:29;17.60;66.00
75719;DHT22;64340;48.534;-3.036;2023-10-09T07:27:09;17.60;66.00
75719;DHT22;64340;48.534;-3.036;2023-10-09T07:29:38;17.60;66.00
75719;DHT22;64340;48.534;-3.036;2023-10-09T07:32:13;17.60;66.00
75719;DHT22;64340;48.534;-3.036;2023-10-09T07:34:45;17.60;66.00
75719;DHT22;64340;48.534;-3.036;2023-10-09T07:37:20;17.60;66.00
75719;DHT22;64340;48.534;-3.036;2023-10-09T07:39:50;17.60;66.00
75719;DHT22;64340;48.534;-3.036;2023-10-09T07:42:25;17.60;66.00
75719;DHT22;64340;48.534;-3.036;2023-10-09T07:45:06;17.60;66.00
75719;DHT22;64340;48.534;-3.036;2023-10-09T07:47:47;17.60;66.00
75719;DHT22;64340;48.534;-3.036;2023-10-09T07:50:25;17.70;66.00
75719;DHT22;64340;48.534;-3.036;2023-10-09T07:53:05;17.60;66.00
75719;DHT22;64340;48.534;-3.036;2023-10-09T07:55:40;17.70;66.00
75719;DHT22;64340;48.534;-3.036;2023-10-09T07:58:11;17.70;66.00
75719;DHT22;64340;48.534;-3.036;2023-10-09T08:00:37;17.70;66.00
75719;DHT22;64340;48.534;-3.036;2023-10-09T08:03:23;17.70;66.10
75719;DHT22;64340;48.534;-3.036;2023-10-09T08:05:58;17.80;66.10
75719;DHT22;64340;48.534;-3.036;2023-10-09T08:08:43;17.80;66.10
75719;DHT22;64340;48.534;-3.036;2023-10-09T08:11:29;17.80;66.00
75719;DHT22;64340;48.534;-3.036;2023-10-09T08:14:14;17.80;66.10
75719;DHT22;64340;48.534;-3.036;2023-10-09T08:17:05;17.80;66.10
75719;DHT22;64340;48.534;-3.036;2023-10-09T08:19:37;17.80;66.10
75719;DHT22;64340;48.534;-3.036;2023-10-09T08:22:17;17.80;66.00
75719;DHT22;64340;48.534;-3.036;2023-10-09T08:25:03;17.80;66.00
75719;DHT22;64340;48.534;-3.036;2023-10-09T08:27:29;17.90;66.00
75719;DHT22;64340;48.534;-3.036;2023-10-09T08:32:41;18.00;66.50
75719;DHT22;64340;48.534;-3.036;2023-10-09T08:35:26;18.00;66.60
75719;DHT22;64340;48.534;-3.036;2023-10-09T08:37:58;18.00;66.90
75719;DHT22;64340;48.534;-3.036;2023-10-09T08:40:34;18.00;66.80
75719;DHT22;64340;48.534;-3.036;2023-10-09T08:43:13;18.00;66.60
75719;DHT22;64340;48.534;-3.036;2023-10-09T08:45:41;18.00;66.50
75719;DHT22;64340;48.534;-3.036;2023-10-09T08:48:10;18.10;66.50
75719;DHT22;64340;48.534;-3.036;2023-10-09T08:50:44;18.10;66.40
75719;DHT22;64340;48.534;-3.036;2023-10-09T08:53:10;18.10;66.40
75719;DHT22;64340;48.534;-3.036;2023-10-09T08:55:39;18.10;66.30
75719;DHT22;64340;48.534;-3.036;2023-10-09T08:58:06;18.20;66.30
75719;DHT22;64340;48.534;-3.036;2023-10-09T09:00:46;18.20;66.20
75719;DHT22;64340;48.534;-3.036;2023-10-09T09:03:16;18.20;66.20
75719;DHT22;64340;48.534;-3.036;2023-10-09T09:05:45;18.20;66.30
75719;DHT22;64340;48.534;-3.036;2023-10-09T09:08:24;18.30;66.20
75719;DHT22;64340;48.534;-3.036;2023-10-09T09:10:55;18.30;66.20
75719;DHT22;64340;48.534;-3.036;2023-10-09T09:13:24;18.30;66.10
75719;DHT22;64340;48.534;-3.036;2023-10-09T09:15:49;18.30;66.10
75719;DHT22;64340;48.534;-3.036;2023-10-09T09:18:18;18.30;66.10
75719;DHT22;64340;48.534;-3.036;2023-10-09T09:20:44;18.40;66.00
75719;DHT22;64340;48.534;-3.036;2023-10-09T09:23:13;18.40;66.10
75719;DHT22;64340;48.534;-3.036;2023-10-09T09:25:40;18.40;66.00
75719;DHT22;64340;48.534;-3.036;2023-10-09T09:28:24;18.40;66.00
75719;DHT22;64340;48.534;-3.036;2023-10-09T09:30:52;18.40;65.90
75719;DHT22;64340;48.534;-3.036;2023-10-09T09:33:28;18.50;66.00
75719;DHT22;64340;48.534;-3.036;2023-10-09T09:36:05;18.50;66.00
75719;DHT22;64340;48.534;-3.036;2023-10-09T09:38:32;18.50;65.90
75719;DHT22;64340;48.534;-3.036;2023-10-09T09:41:08;18.50;65.80
75719;DHT22;64340;48.534;-3.036;2023-10-09T09:43:33;18.50;66.00
75719;DHT22;64340;48.534;-3.036;2023-10-09T09:46:00;18.60;66.10
75719;DHT22;64340;48.534;-3.036;2023-10-09T09:48:29;18.60;66.00
75719;DHT22;64340;48.534;-3.036;2023-10-09T09:50:57;18.60;66.00
75719;DHT22;64340;48.534;-3.036;2023-10-09T09:53:23;18.70;65.90
75719;DHT22;64340;48.534;-3.036;2023-10-09T09:55:50;18.70;65.90
75719;DHT22;64340;48.534;-3.036;2023-10-09T09:58:23;18.70;65.90
75719;DHT22;64340;48.534;-3.036;2023-10-09T10:00:50;18.70;65.80
75719;DHT22;64340;48.534;-3.036;2023-10-09T10:03:22;18.70;65.90
75719;DHT22;64340;48.534;-3.036;2023-10-09T10:05:50;18.80;65.80
75719;DHT22;64340;48.534;-3.036;2023-10-09T10:08:19;18.80;65.90
75719;DHT22;64340;48.534;-3.036;2023-10-09T10:10:45;18.80;65.80
75719;DHT22;64340;48.534;-3.036;2023-10-09T10:21:28;18.90;65.80
75719;DHT22;64340;48.534;-3.036;2023-10-09T10:23:57;18.90;65.80
75719;DHT22;64340;48.534;-3.036;2023-10-09T10:26:31;18.90;65.70
75719;DHT22;64340;48.534;-3.036;2023-10-09T10:31:53;19.00;65.70
75719;DHT22;64340;48.534;-3.036;2023-10-09T10:34:22;19.00;65.80
75719;DHT22;64340;48.534;-3.036;2023-10-09T10:36:49;19.00;65.70
75719;DHT22;64340;48.534;-3.036;2023-10-09T10:39:18;19.00;65.70
75719;DHT22;64340;48.534;-3.036;2023-10-09T10:41:56;19.00;65.70
75719;DHT22;64340;48.534;-3.036;2023-10-09T10:44:26;19.10;65.60
75719;DHT22;64340;48.534;-3.036;2023-10-09T10:47:04;19.10;65.60
75719;DHT22;64340;48.534;-3.036;2023-10-09T10:49:30;19.10;65.60
75719;DHT22;64340;48.534;-3.036;2023-10-09T10:52:02;19.20;65.60
75719;DHT22;64340;48.534;-3.036;2023-10-09T10:54:41;19.20;65.60
75719;DHT22;64340;48.534;-3.036;2023-10-09T10:57:13;19.20;65.50
75719;DHT22;64340;48.534;-3.036;2023-10-09T10:59:45;19.20;65.50
75719;DHT22;64340;48.534;-3.036;2023-10-09T11:02:10;19.20;65.60
75719;DHT22;64340;48.534;-3.036;2023-10-09T11:04:36;19.20;65.50
75719;DHT22;64340;48.534;-3.036;2023-10-09T11:07:07;19.30;65.60
75719;DHT22;64340;48.534;-3.036;2023-10-09T11:09:56;19.30;65.60
75719;DHT22;64340;48.534;-3.036;2023-10-09T11:12:27;19.30;65.50
75719;DHT22;64340;48.534;-3.036;2023-10-09T11:15:14;19.30;65.50
75719;DHT22;64340;48.534;-3.036;2023-10-09T11:20:31;19.40;65.40
75719;DHT22;64340;48.534;-3.036;2023-10-09T11:23:01;19.40;65.40
75719;DHT22;64340;48.534;-3.036;2023-10-09T11:25:38;19.40;65.40
75719;DHT22;64340;48.534;-3.036;2023-10-09T11:31:11;19.50;65.40
75719;DHT22;64340;48.534;-3.036;2023-10-09T11:33:43;19.50;65.40
75719;DHT22;64340;48.534;-3.036;2023-10-09T11:36:09;19.50;65.50
75719;DHT22;64340;48.534;-3.036;2023-10-09T11:38:35;19.50;65.40
75719;DHT22;64340;48.534;-3.036;2023-10-09T11:41:11;19.50;65.40
75719;DHT22;64340;48.534;-3.036;2023-10-09T11:43:47;19.60;65.30
75719;DHT22;64340;48.534;-3.036;2023-10-09T11:46:20;19.50;65.30
75719;DHT22;64340;48.534;-3.036;2023-10-09T11:49:24;19.60;65.40
75719;DHT22;64340;48.534;-3.036;2023-10-09T11:52:09;19.60;65.40
75719;DHT22;64340;48.534;-3.036;2023-10-09T11:54:55;19.70;65.30
75719;DHT22;64340;48.534;-3.036;2023-10-09T11:57:22;19.70;65.30
75719;DHT22;64340;48.534;-3.036;2023-10-09T11:59:55;19.70;65.30
75719;DHT22;64340;48.534;-3.036;2023-10-09T12:02:21;19.70;65.30
75719;DHT22;64340;48.534;-3.036;2023-10-09T12:04:47;19.70;65.30
75719;DHT22;64340;48.534;-3.036;2023-10-09T12:07:12;19.70;65.40
75719;DHT22;64340;48.534;-3.036;2023-10-09T12:09:38;19.70;65.30
75719;DHT22;64340;48.534;-3.036;2023-10-09T12:12:04;19.70;65.20
75719;DHT22;64340;48.534;-3.036;2023-10-09T12:14:30;19.70;65.30
75719;DHT22;64340;48.534;-3.036;2023-10-09T12:17:01;19.70;65.40
75719;DHT22;64340;48.534;-3.036;2023-10-09T12:19:31;19.70;65.40
75719;DHT22;64340;48.534;-3.036;2023-10-09T12:21:57;19.80;65.40
75719;DHT22;64340;48.534;-3.036;2023-10-09T12:24:26;19.80;65.40
75719;DHT22;64340;48.534;-3.036;2023-10-09T12:26:51;19.90;65.30
75719;DHT22;64340;48.534;-3.036;2023-10-09T12:29:18;19.90;65.20
75719;DHT22;64340;48.534;-3.036;2023-10-09T12:31:45;20.00;65.20
75719;DHT22;64340;48.534;-3.036;2023-10-09T12:34:10;19.90;65.20
75719;DHT22;64340;48.534;-3.036;2023-10-09T12:36:42;20.00;65.20
75719;DHT22;64340;48.534;-3.036;2023-10-09T12:39:09;20.00;65.20
75719;DHT22;64340;48.534;-3.036;2023-10-09T12:41:43;20.00;65.20
75719;DHT22;64340;48.534;-3.036;2023-10-09T12:44:09;20.00;65.20
75719;DHT22;64340;48.534;-3.036;2023-10-09T12:46:42;20.00;65.20
75719;DHT22;64340;48.534;-3.036;2023-10-09T12:49:18;20.00;65.20
75719;DHT22;64340;48.534;-3.036;2023-10-09T12:51:43;20.00;65.30
75719;DHT22;64340;48.534;-3.036;2023-10-09T12:54:09;20.00;65.20
75719;DHT22;64340;48.534;-3.036;2023-10-09T12:56:35;20.00;65.20
75719;DHT22;64340;48.534;-3.036;2023-10-09T12:59:03;20.00;65.20
75719;DHT22;64340;48.534;-3.036;2023-10-09T13:01:37;20.00;65.20
75719;DHT22;64340;48.534;-3.036;2023-10-09T13:04:10;20.10;65.20
75719;DHT22;64340;48.534;-3.036;2023-10-09T13:06:44;20.10;65.20
75719;DHT22;64340;48.534;-3.036;2023-10-09T13:09:14;20.10;65.20
75719;DHT22;64340;48.534;-3.036;2023-10-09T13:11:40;20.00;65.30
75719;DHT22;64340;48.534;-3.036;2023-10-09T13:14:06;20.10;65.20
75719;DHT22;64340;48.534;-3.036;2023-10-09T13:16:47;20.10;65.20
75719;DHT22;64340;48.534;-3.036;2023-10-09T13:19:16;20.10;65.20
75719;DHT22;64340;48.534;-3.036;2023-10-09T13:21:42;20.10;65.20
75719;DHT22;64340;48.534;-3.036;2023-10-09T13:24:09;20.10;65.10
75719;DHT22;64340;48.534;-3.036;2023-10-09T13:26:49;20.10;65.10
75719;DHT22;64340;48.534;-3.036;2023-10-09T13:29:16;20.30;64.70
75719;DHT22;64340;48.534;-3.036;2023-10-09T13:31:47;20.30;64.80
75719;DHT22;64340;48.534;-3.036;2023-10-09T13:34:14;20.30;64.90
75719;DHT22;64340;48.534;-3.036;2023-10-09T13:36:43;20.30;64.90
75719;DHT22;64340;48.534;-3.036;2023-10-09T13:39:23;20.20;64.90
75719;DHT22;64340;48.534;-3.036;2023-10-09T13:41:53;20.20;65.00
75719;DHT22;64340;48.534;-3.036;2023-10-09T13:44:29;20.20;64.90
75719;DHT22;64340;48.534;-3.036;2023-10-09T13:46:55;20.30;65.00
75719;DHT22;64340;48.534;-3.036;2023-10-09T13:49:21;20.30;65.00
75719;DHT22;64340;48.534;-3.036;2023-10-09T13:51:48;20.20;65.00
75719;DHT22;64340;48.534;-3.036;2023-10-09T13:54:15;20.30;64.90
75719;DHT22;64340;48.534;-3.036;2023-10-09T13:56:54;20.30;64.90
75719;DHT22;64340;48.534;-3.036;2023-10-09T13:59:22;20.30;64.90
75719;DHT22;64340;48.534;-3.036;2023-10-09T14:01:53;20.30;64.90
75719;DHT22;64340;48.534;-3.036;2023-10-09T14:04:22;20.30;65.00
75719;DHT22;64340;48.534;-3.036;2023-10-09T14:06:48;20.30;64.90
75719;DHT22;64340;48.534;-3.036;2023-10-09T14:09:14;20.30;64.90
75719;DHT22;64340;48.534;-3.036;2023-10-09T14:12:19;20.30;65.00
75719;DHT22;64340;48.534;-3.036;2023-10-09T14:14:47;20.30;65.00
75719;DHT22;64340;48.534;-3.036;2023-10-09T14:17:13;20.30;65.00
75719;DHT22;64340;48.534;-3.036;2023-10-09T14:19:39;20.30;65.00
75719;DHT22;64340;48.534;-3.036;2023-10-09T14:22:07;20.30;65.00
75719;DHT22;64340;48.534;-3.036;2023-10-09T14:24:32;20.30;65.00
75719;DHT22;64340;48.534;-3.036;2023-10-09T14:27:00;20.30;65.00
75719;DHT22;64340;48.534;-3.036;2023-10-09T14:29:28;20.30;65.00
75719;DHT22;64340;48.534;-3.036;2023-10-09T14:31:56;20.30;65.00
75719;DHT22;64340;48.534;-3.036;2023-10-09T14:34:28;20.30;65.00
75719;DHT22;64340;48.534;-3.036;2023-10-09T14:36:54;20.30;65.00
75719;DHT22;64340;48.534;-3.036;2023-10-09T14:39:20;20.30;65.00
75719;DHT22;64340;48.534;-3.036;2023-10-09T14:41:52;20.30;65.10
75719;DHT22;64340;48.534;-3.036;2023-10-09T14:44:20;20.30;65.10
75719;DHT22;64340;48.534;-3.036;2023-10-09T14:46:46;20.30;65.10
75719;DHT22;64340;48.534;-3.036;2023-10-09T14:49:11;20.30;65.10
75719;DHT22;64340;48.534;-3.036;2023-10-09T14:51:40;20.40;65.00
75719;DHT22;64340;48.534;-3.036;2023-10-09T14:54:05;20.40;65.00
75719;DHT22;64340;48.534;-3.036;2023-10-09T14:56:33;20.40;65.10
75719;DHT22;64340;48.534;-3.036;2023-10-09T14:59:02;20.40;65.00
75719;DHT22;64340;48.534;-3.036;2023-10-09T15:01:28;20.40;65.10
75719;DHT22;64340;48.534;-3.036;2023-10-09T15:03:55;20.40;65.10
75719;DHT22;64340;48.534;-3.036;2023-10-09T15:06:22;20.40;65.00
75719;DHT22;64340;48.534;-3.036;2023-10-09T15:08:49;20.40;65.00
75719;DHT22;64340;48.534;-3.036;2023-10-09T15:11:15;20.40;65.00
75719;DHT22;64340;48.534;-3.036;2023-10-09T15:13:40;20.40;65.00
75719;DHT22;64340;48.534;-3.036;2023-10-09T15:16:06;20.40;65.00
75719;DHT22;64340;48.534;-3.036;2023-10-09T15:18:32;20.40;65.00
75719;DHT22;64340;48.534;-3.036;2023-10-09T15:20:58;20.40;65.10
75719;DHT22;64340;48.534;-3.036;2023-10-09T15:23:25;20.50;64.40
75719;DHT22;64340;48.534;-3.036;2023-10-09T15:25:50;20.60;62.30
75719;DHT22;64340;48.534;-3.036;2023-10-09T15:28:21;20.70;62.40
75719;DHT22;64340;48.534;-3.036;2023-10-09T15:30:47;20.70;62.80
75719;DHT22;64340;48.534;-3.036;2023-10-09T15:33:15;20.60;63.20
75719;DHT22;64340;48.534;-3.036;2023-10-09T15:35:45;20.60;63.30
75719;DHT22;64340;48.534;-3.036;2023-10-09T15:38:12;20.60;63.20
75719;DHT22;64340;48.534;-3.036;2023-10-09T15:40:39;20.70;61.40
75719;DHT22;64340;48.534;-3.036;2023-10-09T15:43:07;20.70;62.20
75719;DHT22;64340;48.534;-3.036;2023-10-09T15:45:35;20.70;61.40
75719;DHT22;64340;48.534;-3.036;2023-10-09T15:48:05;20.70;61.80
75719;DHT22;64340;48.534;-3.036;2023-10-09T15:50:31;20.80;61.20
75719;DHT22;64340;48.534;-3.036;2023-10-09T15:52:59;20.80;60.50
75719;DHT22;64340;48.534;-3.036;2023-10-09T15:55:26;20.70;61.30
75719;DHT22;64340;48.534;-3.036;2023-10-09T15:57:52;20.70;61.30
75719;DHT22;64340;48.534;-3.036;2023-10-09T16:00:18;20.70;61.60
75719;DHT22;64340;48.534;-3.036;2023-10-09T16:02:44;20.70;60.60
75719;DHT22;64340;48.534;-3.036;2023-10-09T16:05:11;20.80;59.50
75719;DHT22;64340;48.534;-3.036;2023-10-09T16:07:38;20.70;59.70
75719;DHT22;64340;48.534;-3.036;2023-10-09T16:10:07;20.70;60.00
75719;DHT22;64340;48.534;-3.036;2023-10-09T16:12:34;20.70;60.00